createdAt,value
2023-03-19T00:00:28.004Z,5.30
2023-03-19T00:02:54.809Z,1.42
2023-03-19T00:05:21.610Z,4.40
2023-03-19T00:07:48.228Z,4.65
2023-03-19T00:10:14.996Z,2.58
2023-03-19T00:12:41.574Z,1.27
2023-03-19T00:15:13.908Z,2.92
2023-03-19T00:17:42.106Z,3.05
2023-03-19T00:20:11.042Z,3.10
2023-03-19T00:22:37.628Z,5.80
2023-03-19T00:25:04.540Z,1.80
2023-03-19T00:27:31.145Z,2.17
2023-03-19T00:29:57.823Z,2.33
2023-03-19T00:32:24.373Z,1.67
2023-03-19T00:34:50.994Z,1.83
2023-03-19T00:37:18.220Z,3.38
2023-03-19T00:39:44.818Z,1.92
2023-03-19T00:42:11.843Z,1.63
2023-03-19T00:44:38.384Z,1.13
2023-03-19T00:47:06.866Z,2.83
2023-03-19T00:49:33.502Z,3.17
2023-03-19T00:52:00.291Z,2.72
2023-03-19T00:54:27.517Z,2.67
2023-03-19T00:56:54.172Z,3.53
2023-03-19T00:59:20.827Z,1.35
2023-03-19T01:01:47.442Z,0.63
2023-03-19T01:04:14.928Z,3.15
2023-03-19T01:06:41.889Z,0.98
2023-03-19T01:09:08.634Z,0.82
2023-03-19T01:11:35.882Z,3.65
2023-03-19T01:14:03.213Z,2.92
2023-03-19T01:16:30.239Z,3.45
2023-03-19T01:18:56.762Z,1.55
2023-03-19T01:21:23.395Z,1.55
2023-03-19T01:23:51.980Z,1.73
2023-03-19T01:26:19.704Z,1.88
2023-03-19T01:28:49.330Z,1.02
2023-03-19T01:31:18.216Z,1.27
2023-03-19T01:34:03.930Z,2.88
2023-03-19T01:36:42.483Z,4.10
2023-03-19T01:39:10.626Z,2.70
2023-03-19T01:41:37.333Z,3.05
2023-03-19T01:44:31.142Z,4.10
2023-03-19T01:47:32.820Z,1.15
2023-03-19T01:50:33.598Z,3.07
2023-03-19T01:53:21.178Z,4.45
2023-03-19T01:56:24.076Z,2.42
2023-03-19T01:59:02.967Z,1.00
2023-03-19T02:01:51.184Z,3.33
2023-03-19T02:04:19.594Z,1.52
2023-03-19T02:06:46.972Z,1.00
2023-03-19T02:09:15.201Z,3.47
2023-03-19T02:11:42.080Z,2.72
2023-03-19T02:14:10.134Z,1.50
2023-03-19T02:16:36.970Z,1.13
2023-03-19T02:19:04.898Z,1.23
2023-03-19T02:21:32.093Z,1.38
2023-03-19T02:24:11.190Z,1.65
2023-03-19T02:26:51.644Z,0.88
2023-03-19T02:29:18.518Z,2.22
2023-03-19T02:31:46.114Z,3.70
2023-03-19T02:34:18.965Z,2.05
2023-03-19T02:36:57.594Z,3.33
2023-03-19T02:39:51.793Z,2.80
2023-03-19T02:42:20.140Z,1.55
2023-03-19T02:44:47.697Z,5.32
2023-03-19T02:47:15.566Z,0.93
2023-03-19T02:49:42.107Z,1.27
2023-03-19T02:52:09.187Z,1.08
2023-03-19T02:54:35.735Z,1.33
2023-03-19T02:57:02.414Z,4.95
2023-03-19T02:59:29.423Z,1.20
2023-03-19T03:01:56.106Z,1.38
2023-03-19T03:04:22.762Z,2.22
2023-03-19T03:06:49.255Z,4.07
2023-03-19T03:09:15.941Z,2.75
2023-03-19T03:11:43.107Z,1.02
2023-03-19T03:14:09.792Z,2.80
2023-03-19T03:16:37.933Z,3.00
2023-03-19T03:19:05.450Z,2.13
2023-03-19T03:21:34.355Z,1.42
2023-03-19T03:24:01.926Z,2.30
2023-03-19T03:26:28.485Z,1.83
2023-03-19T03:28:55.182Z,1.15
2023-03-19T03:31:22.131Z,3.28
2023-03-19T03:33:50.406Z,13.55
2023-03-19T03:36:17.551Z,3.40
2023-03-19T03:38:45.199Z,4.93
2023-03-19T03:41:12.815Z,1.60
2023-03-19T03:43:41.097Z,3.40
2023-03-19T03:46:08.770Z,1.55
2023-03-19T03:48:35.860Z,2.95
2023-03-19T03:51:04.346Z,4.40
2023-03-19T03:53:31.877Z,1.30
2023-03-19T03:55:58.784Z,1.88
2023-03-19T03:58:27.940Z,2.13
2023-03-19T04:00:55.446Z,2.00
2023-03-19T04:03:24.251Z,3.30
2023-03-19T04:05:51.712Z,5.22
2023-03-19T04:08:19.894Z,2.40
2023-03-19T04:10:46.833Z,2.63
2023-03-19T04:13:13.423Z,5.88
2023-03-19T04:15:43.213Z,1.40
2023-03-19T04:18:13.218Z,2.15
2023-03-19T04:20:41.135Z,2.13
2023-03-19T04:23:08.280Z,1.17
2023-03-19T04:25:34.995Z,1.77
2023-03-19T04:28:02.033Z,4.78
2023-03-19T04:30:29.009Z,3.45
2023-03-19T04:32:56.655Z,2.72
2023-03-19T04:35:23.610Z,4.80
2023-03-19T04:37:50.399Z,3.80
2023-03-19T04:40:19.484Z,1.67
2023-03-19T04:42:47.129Z,1.55
2023-03-19T04:45:25.818Z,4.57
2023-03-19T04:47:52.640Z,2.25
2023-03-19T04:50:20.063Z,4.88
2023-03-19T04:52:46.753Z,3.13
2023-03-19T04:55:14.826Z,2.47
2023-03-19T04:57:54.753Z,3.67
2023-03-19T05:00:26.483Z,1.70
2023-03-19T05:02:53.330Z,1.98
2023-03-19T05:05:19.885Z,5.32
2023-03-19T05:07:47.408Z,1.52
2023-03-19T05:10:14.223Z,1.00
2023-03-19T05:12:41.129Z,2.30
2023-03-19T05:15:09.494Z,2.22
2023-03-19T05:17:45.841Z,1.65
2023-03-19T05:22:53.634Z,4.38
2023-03-19T05:25:24.212Z,4.53
2023-03-19T05:27:50.841Z,3.13
2023-03-19T05:30:20.409Z,3.90
2023-03-19T05:33:04.139Z,4.93
2023-03-19T05:35:37.563Z,5.30
2023-03-19T05:38:11.077Z,5.90
2023-03-19T05:40:42.054Z,6.32
2023-03-19T05:43:24.101Z,4.53
2023-03-19T05:45:54.714Z,4.20
2023-03-19T05:48:26.559Z,2.92
2023-03-19T05:50:54.261Z,4.47
2023-03-19T05:53:23.106Z,4.50
2023-03-19T05:56:08.450Z,5.15
2023-03-19T05:58:45.863Z,6.47
2023-03-19T06:01:16.165Z,3.60
2023-03-19T06:03:43.567Z,5.93
2023-03-19T06:06:10.935Z,3.58
2023-03-19T06:08:43.056Z,4.15
2023-03-19T06:11:42.854Z,6.05
2023-03-19T06:14:27.818Z,4.90
2023-03-19T06:17:27.130Z,2.47
2023-03-19T06:19:57.316Z,4.35
2023-03-19T06:22:24.272Z,5.65
2023-03-19T06:24:51.050Z,3.10
2023-03-19T06:27:17.823Z,3.90
2023-03-19T06:29:44.916Z,3.80
2023-03-19T06:32:22.774Z,4.15
2023-03-19T06:34:51.744Z,6.55
2023-03-19T06:37:19.112Z,1.88
2023-03-19T06:39:45.705Z,3.60
2023-03-19T06:42:13.325Z,3.83
2023-03-19T06:44:40.278Z,5.38
2023-03-19T06:47:08.553Z,6.63
2023-03-19T06:49:37.419Z,1.95
2023-03-19T06:52:04.272Z,6.53
2023-03-19T06:54:31.271Z,4.90
2023-03-19T06:56:58.406Z,4.47
2023-03-19T06:59:25.874Z,6.45
2023-03-19T07:01:52.633Z,5.38
2023-03-19T07:04:19.635Z,3.85
2023-03-19T07:06:46.784Z,3.38
2023-03-19T07:09:13.426Z,3.38
2023-03-19T07:11:40.392Z,4.80
2023-03-19T07:14:07.002Z,2.30
2023-03-19T07:16:33.728Z,3.17
2023-03-19T07:19:00.803Z,2.60
2023-03-19T07:21:27.751Z,3.72
2023-03-19T07:23:54.384Z,3.80
2023-03-19T07:26:21.246Z,3.72
2023-03-19T07:28:48.471Z,5.03
2023-03-19T07:31:16.966Z,3.72
2023-03-19T07:33:43.592Z,3.67
2023-03-19T07:36:10.399Z,5.07
2023-03-19T07:38:37.070Z,4.13
2023-03-19T07:41:04.209Z,6.50
2023-03-19T07:43:31.451Z,4.57
2023-03-19T07:45:58.657Z,7.22
2023-03-19T07:48:25.329Z,5.05
2023-03-19T07:50:52.309Z,4.32
2023-03-19T07:53:19.026Z,4.85
2023-03-19T07:55:45.691Z,4.40
2023-03-19T07:58:12.371Z,5.28
2023-03-19T08:00:39.070Z,4.22
2023-03-19T08:03:05.967Z,6.07
2023-03-19T08:05:32.515Z,6.10
2023-03-19T08:07:59.171Z,5.40
2023-03-19T08:10:25.945Z,9.25
2023-03-19T08:12:52.555Z,4.93
2023-03-19T08:15:19.126Z,5.07
2023-03-19T08:17:45.888Z,3.70
2023-03-19T08:20:16.381Z,5.13
2023-03-19T08:22:43.788Z,7.95
2023-03-19T08:25:10.595Z,4.43
2023-03-19T08:27:37.359Z,7.05
2023-03-19T08:30:06.292Z,6.13
2023-03-19T08:32:32.941Z,6.70
2023-03-19T08:35:00.335Z,7.80
2023-03-19T08:37:26.863Z,5.25
2023-03-19T08:39:53.400Z,6.90
2023-03-19T08:42:21.531Z,5.45
2023-03-19T08:44:48.969Z,7.07
2023-03-19T08:47:18.731Z,6.03
2023-03-19T08:49:45.370Z,3.40
2023-03-19T08:52:12.107Z,9.95
2023-03-19T08:54:38.658Z,8.40
2023-03-19T08:57:05.317Z,7.95
2023-03-19T08:59:34.228Z,6.57
2023-03-19T09:02:01.630Z,9.80
2023-03-19T09:04:28.458Z,7.55
2023-03-19T09:06:55.084Z,6.00
2023-03-19T09:09:23.653Z,9.35
2023-03-19T09:11:50.436Z,10.07
2023-03-19T09:14:20.662Z,5.75
2023-03-19T09:16:47.293Z,8.48
2023-03-19T09:19:14.249Z,9.57
2023-03-19T09:21:41.283Z,4.35
2023-03-19T09:24:07.995Z,5.50
2023-03-19T09:26:34.859Z,12.45
2023-03-19T09:29:02.210Z,9.32
2023-03-19T09:31:29.931Z,7.03
2023-03-19T09:33:56.704Z,4.35
2023-03-19T09:36:23.443Z,5.78
2023-03-19T09:38:49.961Z,5.68
2023-03-19T09:41:32.135Z,6.40
2023-03-19T09:44:11.097Z,6.32
2023-03-19T09:46:49.197Z,6.35
2023-03-19T09:49:38.449Z,3.42
2023-03-19T09:52:23.802Z,4.00
2023-03-19T09:54:52.842Z,4.20
2023-03-19T09:57:19.774Z,5.18
2023-03-19T09:59:47.186Z,2.47
2023-03-19T10:02:42.830Z,3.92
2023-03-19T10:05:50.426Z,2.33
2023-03-19T10:08:26.962Z,1.70
2023-03-19T10:11:09.923Z,1.80
2023-03-19T10:13:58.427Z,2.85
2023-03-19T10:16:27.805Z,0.80
2023-03-19T10:19:02.541Z,3.10
2023-03-19T10:21:57.328Z,3.95
2023-03-19T10:24:33.505Z,1.63
2023-03-19T10:27:03.056Z,2.10
2023-03-19T10:29:29.842Z,2.38
2023-03-19T10:32:01.672Z,1.85
2023-03-19T10:34:31.367Z,1.58
2023-03-19T10:37:00.354Z,1.55
2023-03-19T10:39:28.296Z,1.80
2023-03-19T10:42:10.178Z,1.58
2023-03-19T10:44:51.215Z,2.95
2023-03-19T10:47:22.801Z,1.75
2023-03-19T10:49:51.165Z,1.42
2023-03-19T10:52:35.216Z,6.50
2023-03-19T10:57:35.253Z,0.90
2023-03-19T11:00:32.117Z,1.63
2023-03-19T11:02:59.224Z,0.32
2023-03-19T11:05:31.613Z,1.45
2023-03-19T11:08:05.654Z,2.83
2023-03-19T11:10:36.299Z,1.65
2023-03-19T11:13:24.786Z,1.27
2023-03-19T11:15:58.512Z,1.25
2023-03-19T11:22:23.201Z,3.28
2023-03-19T11:25:02.533Z,1.20
2023-03-19T11:27:35.029Z,0.77
2023-03-19T11:30:04.087Z,3.10
2023-03-19T11:32:56.827Z,7.88
2023-03-19T11:35:38.026Z,2.13
2023-03-19T11:38:19.618Z,1.88
2023-03-19T11:41:02.199Z,5.80
2023-03-19T11:43:46.578Z,2.60
2023-03-19T11:46:31.823Z,2.13
2023-03-19T11:48:58.568Z,2.30
2023-03-19T11:51:37.884Z,1.38
2023-03-19T11:54:13.566Z,1.48
2023-03-19T11:56:47.407Z,3.25
2023-03-19T11:59:29.420Z,1.58
2023-03-19T12:02:20.868Z,2.40
2023-03-19T12:04:53.520Z,4.80
2023-03-19T12:07:47.029Z,1.65
2023-03-19T12:10:30.166Z,1.20
2023-03-19T12:13:05.945Z,2.97
2023-03-19T12:15:52.718Z,1.33
2023-03-19T12:18:41.897Z,2.55
2023-03-19T12:21:26.993Z,0.60
2023-03-19T12:24:04.169Z,3.28
2023-03-19T12:26:52.729Z,2.47
2023-03-19T12:29:46.151Z,0.85
2023-03-19T12:32:22.606Z,3.03
2023-03-19T12:34:55.785Z,1.23
2023-03-19T12:37:31.226Z,4.05
2023-03-19T12:40:15.042Z,3.05
2023-03-19T12:45:29.085Z,5.28
2023-03-19T12:48:02.366Z,2.17
2023-03-19T12:50:32.413Z,2.75
2023-03-19T12:53:02.160Z,2.47
2023-03-19T12:55:42.964Z,1.80
2023-03-19T12:58:20.423Z,2.03
2023-03-19T13:00:59.682Z,2.55
2023-03-19T13:03:52.439Z,3.05
2023-03-19T13:06:35.329Z,3.30
2023-03-19T13:09:09.877Z,4.25
2023-03-19T13:11:59.975Z,2.60
2023-03-19T13:15:19.810Z,6.80
2023-03-19T13:17:55.588Z,3.55
2023-03-19T13:20:46.994Z,4.85
2023-03-19T13:23:21.524Z,1.23
2023-03-19T13:25:50.537Z,2.75
2023-03-19T13:28:38.713Z,3.28
2023-03-19T13:31:08.276Z,2.83
2023-03-19T13:33:37.552Z,1.13
2023-03-19T13:36:15.060Z,2.90
2023-03-19T13:38:47.780Z,3.65
2023-03-19T13:41:42.497Z,1.48
2023-03-19T13:44:18.461Z,6.03
2023-03-19T13:46:45.456Z,2.85
2023-03-19T13:49:33.562Z,3.17
2023-03-19T13:52:21.972Z,2.17
2023-03-19T13:54:53.703Z,1.88
2023-03-19T13:57:22.699Z,1.30
2023-03-19T13:59:50.856Z,2.42
2023-03-19T14:02:26.373Z,5.10
2023-03-19T14:05:02.802Z,3.78
2023-03-19T14:07:40.350Z,4.68
2023-03-19T14:10:17.486Z,0.95
2023-03-19T14:12:45.231Z,2.45
2023-03-19T14:15:27.873Z,6.13
2023-03-19T14:17:58.551Z,1.80
2023-03-19T14:20:36.996Z,3.28
2023-03-19T14:23:11.360Z,4.93
2023-03-19T14:26:10.320Z,5.65
2023-03-19T14:28:49.592Z,7.28
2023-03-19T14:31:38.572Z,2.72
2023-03-19T14:34:08.050Z,2.67
2023-03-19T14:36:39.036Z,1.95
2023-03-19T14:39:22.501Z,1.25
2023-03-19T14:41:56.647Z,4.00
2023-03-19T14:44:54.329Z,5.40
2023-03-19T14:47:50.341Z,2.58
2023-03-19T14:50:33.174Z,3.38
2023-03-19T14:53:11.073Z,4.43
2023-03-19T14:55:38.486Z,3.80
2023-03-19T14:58:05.326Z,10.27
2023-03-19T15:00:58.444Z,6.15
2023-03-19T15:03:34.638Z,2.17
2023-03-19T15:06:03.804Z,6.93
2023-03-19T15:08:33.384Z,4.70
2023-03-19T15:11:16.298Z,3.05
2023-03-19T15:14:28.408Z,4.20
2023-03-19T15:17:06.236Z,1.98
2023-03-19T15:19:35.722Z,3.30
2023-03-19T15:22:11.461Z,2.58
2023-03-19T15:24:38.317Z,3.00
2023-03-19T15:27:25.596Z,1.48
2023-03-19T15:29:53.660Z,2.95
2023-03-19T15:33:09.068Z,1.88
2023-03-19T15:35:31.906Z,3.05
2023-03-19T15:38:01.850Z,1.98
2023-03-19T15:40:31.575Z,2.95
2023-03-19T15:43:02.228Z,1.67
2023-03-19T15:45:31.466Z,2.88
2023-03-19T15:48:04.832Z,2.13
2023-03-19T15:50:36.219Z,2.53
2023-03-19T15:53:10.658Z,1.52
2023-03-19T15:55:38.713Z,2.85
2023-03-19T15:58:15.566Z,2.30
2023-03-19T16:00:43.165Z,1.40
2023-03-19T16:03:17.572Z,3.60
2023-03-19T16:05:44.343Z,2.10
2023-03-19T16:08:22.170Z,2.30
2023-03-19T16:10:48.922Z,2.47
2023-03-19T16:13:37.856Z,5.22
2023-03-19T16:16:17.623Z,1.98
2023-03-19T16:18:53.121Z,1.63
2023-03-19T16:21:28.277Z,1.30
2023-03-19T16:23:59.172Z,2.17
2023-03-19T16:26:39.684Z,1.98
2023-03-19T16:29:19.416Z,1.08
2023-03-19T16:31:52.908Z,2.80
2023-03-19T16:34:31.873Z,0.90
2023-03-19T16:36:59.149Z,1.88
2023-03-19T16:39:33.585Z,1.38
2023-03-19T16:42:09.097Z,2.17
2023-03-19T16:44:39.841Z,1.35
2023-03-19T16:47:14.649Z,1.95
2023-03-19T16:49:41.206Z,1.80
2023-03-19T16:52:16.319Z,1.48
2023-03-19T16:54:43.819Z,4.30
2023-03-19T16:57:11.819Z,3.08
2023-03-19T16:59:38.640Z,2.30
2023-03-19T17:02:17.744Z,3.17
2023-03-19T17:04:45.413Z,1.45
2023-03-19T17:07:12.601Z,2.38
2023-03-19T17:09:39.262Z,0.80
2023-03-19T17:12:08.439Z,3.92
2023-03-19T17:14:35.624Z,2.35
2023-03-19T17:17:03.103Z,0.90
2023-03-19T17:19:35.914Z,2.00
2023-03-19T17:22:02.592Z,2.33
2023-03-19T17:24:34.821Z,1.17
2023-03-19T17:27:03.946Z,0.98
2023-03-19T17:29:31.624Z,1.98
2023-03-19T17:32:01.851Z,4.80
2023-03-19T17:34:33.516Z,0.90
2023-03-19T17:37:02.011Z,4.78
2023-03-19T17:39:32.824Z,2.67
2023-03-19T17:41:59.614Z,2.03
2023-03-19T17:44:27.913Z,28.20
2023-03-19T17:46:55.955Z,67.30
2023-03-19T17:49:37.542Z,42.17
2023-03-19T17:52:07.047Z,33.10
2023-03-19T17:54:33.591Z,27.05
2023-03-19T17:57:44.729Z,34.30
2023-03-19T18:00:12.682Z,17.58
2023-03-19T18:02:41.180Z,11.93
2023-03-19T18:05:28.147Z,15.48
2023-03-19T18:07:55.754Z,12.40
2023-03-19T18:10:27.475Z,9.45
2023-03-19T18:12:54.786Z,19.55
2023-03-19T18:15:22.583Z,19.67
2023-03-19T18:17:53.106Z,13.02
2023-03-19T18:20:22.708Z,7.95
2023-03-19T18:22:49.552Z,3.92
2023-03-19T18:25:21.368Z,3.80
2023-03-19T18:27:48.719Z,2.38
2023-03-19T18:30:18.667Z,6.63
2023-03-19T18:32:47.880Z,2.65
2023-03-19T18:35:17.154Z,2.05
2023-03-19T18:37:49.749Z,1.33
2023-03-19T18:40:23.566Z,4.25
2023-03-19T18:42:50.428Z,3.03
2023-03-19T18:45:18.459Z,6.68
2023-03-19T18:47:47.369Z,1.40
2023-03-19T18:50:24.780Z,6.57
2023-03-19T18:52:53.332Z,1.98
2023-03-19T18:55:22.077Z,3.95
2023-03-19T18:57:53.810Z,2.97
2023-03-19T19:00:31.613Z,1.85
2023-03-19T19:03:00.531Z,2.97
2023-03-19T19:05:29.847Z,1.88
2023-03-19T19:07:58.138Z,2.28
2023-03-19T19:10:25.988Z,4.10
2023-03-19T19:12:55.085Z,4.93
2023-03-19T19:15:31.246Z,2.50
2023-03-19T19:17:58.863Z,4.75
2023-03-19T19:20:28.275Z,2.20
2023-03-19T19:22:55.834Z,4.47
2023-03-19T19:25:25.856Z,4.68
2023-03-19T19:28:00.843Z,4.82
2023-03-19T19:30:28.996Z,2.17
2023-03-19T19:32:57.153Z,5.65
2023-03-19T19:35:26.864Z,3.83
2023-03-19T19:37:55.405Z,3.28
2023-03-19T19:40:29.186Z,1.30
2023-03-19T19:42:56.136Z,1.85
2023-03-19T19:45:33.149Z,4.82
2023-03-19T19:48:00.742Z,4.38
2023-03-19T19:50:28.016Z,1.08
2023-03-19T19:52:56.562Z,5.95
2023-03-19T19:55:25.573Z,3.03
2023-03-19T19:57:54.421Z,4.57
2023-03-19T20:00:29.842Z,1.13
2023-03-19T20:02:57.879Z,3.90
2023-03-19T20:05:33.483Z,6.03
2023-03-19T20:08:01.660Z,6.65
2023-03-19T20:10:31.022Z,6.82
2023-03-19T20:13:01.401Z,4.90
2023-03-19T20:15:36.073Z,8.30
2023-03-19T20:18:04.964Z,1.83
2023-03-19T20:20:33.277Z,3.47
2023-03-19T20:23:04.192Z,6.03
2023-03-19T20:25:35.038Z,1.60
2023-03-19T20:28:02.404Z,1.33
2023-03-19T20:30:31.998Z,3.95
2023-03-19T20:33:00.863Z,1.48
2023-03-19T20:35:33.973Z,1.88
2023-03-19T20:38:01.993Z,1.88
2023-03-19T20:40:32.637Z,1.52
2023-03-19T20:43:00.832Z,1.30
2023-03-19T20:45:45.983Z,1.38
2023-03-19T20:48:16.578Z,3.35
2023-03-19T20:50:44.265Z,4.25
2023-03-19T20:53:11.269Z,2.88
2023-03-19T20:55:39.944Z,0.73
2023-03-19T20:58:16.435Z,9.05
2023-03-19T21:00:43.590Z,2.10
2023-03-19T21:03:17.955Z,2.10
2023-03-19T21:05:45.189Z,1.95
2023-03-19T21:08:19.614Z,4.53
2023-03-19T21:10:49.243Z,1.27
2023-03-19T21:13:18.038Z,2.88
2023-03-19T21:15:46.388Z,1.58
2023-03-19T21:18:13.209Z,5.38
2023-03-19T21:20:42.485Z,1.55
2023-03-19T21:23:31.700Z,2.35
2023-03-19T21:25:59.996Z,1.90
2023-03-19T21:28:26.626Z,1.52
2023-03-19T21:30:53.435Z,1.33
2023-03-19T21:33:24.676Z,2.47
2023-03-19T21:35:52.875Z,4.80
2023-03-19T21:38:19.867Z,3.28
2023-03-19T21:40:46.950Z,0.82
2023-03-19T21:43:20.726Z,1.92
2023-03-19T21:45:49.421Z,1.10
2023-03-19T21:48:32.977Z,2.40
2023-03-19T21:51:01.463Z,4.03
2023-03-19T21:53:28.903Z,4.80
2023-03-19T21:55:58.449Z,4.82
2023-03-19T21:58:31.318Z,5.82
2023-03-19T22:00:58.661Z,3.55
2023-03-19T22:03:25.770Z,2.83
2023-03-19T22:05:52.640Z,3.53
2023-03-19T22:08:20.885Z,1.63
2023-03-19T22:10:55.331Z,2.35
2023-03-19T22:13:25.968Z,4.13
2023-03-19T22:15:54.409Z,1.50
2023-03-19T22:18:21.672Z,1.95
2023-03-19T22:20:50.183Z,3.28
2023-03-19T22:23:18.240Z,2.65
2023-03-19T22:25:47.757Z,3.05
2023-03-19T22:28:30.627Z,5.35
2023-03-19T22:30:57.718Z,5.72
2023-03-19T22:33:26.511Z,2.95
2023-03-19T22:35:53.937Z,3.63
2023-03-19T22:38:22.691Z,4.80
2023-03-19T22:40:52.721Z,2.90
2023-03-19T22:43:30.264Z,2.75
2023-03-19T22:46:02.310Z,9.13
2023-03-19T22:48:28.999Z,5.95
2023-03-19T22:50:55.785Z,2.25
2023-03-19T22:53:28.081Z,2.97
2023-03-19T22:55:55.581Z,2.47
2023-03-19T22:58:23.197Z,2.75
2023-03-19T23:00:50.698Z,4.40
2023-03-19T23:03:26.037Z,2.05
2023-03-19T23:05:56.869Z,2.33
2023-03-19T23:08:23.450Z,1.50
2023-03-19T23:10:51.391Z,1.95
2023-03-19T23:13:18.059Z,4.10
2023-03-19T23:15:45.620Z,3.15
2023-03-19T23:18:19.274Z,3.80
2023-03-19T23:20:47.064Z,4.65
2023-03-19T23:23:16.380Z,2.70
2023-03-19T23:25:44.359Z,1.95
2023-03-19T23:28:24.612Z,2.63
2023-03-19T23:30:51.992Z,1.23
2023-03-19T23:33:19.926Z,3.88
2023-03-19T23:35:47.350Z,2.53
2023-03-19T23:38:15.079Z,3.53
2023-03-19T23:40:46.513Z,2.70
2023-03-19T23:43:27.252Z,4.25
2023-03-19T23:45:55.146Z,2.17
2023-03-19T23:48:31.813Z,1.35
2023-03-19T23:50:58.468Z,1.55
2023-03-19T23:53:27.321Z,5.22
2023-03-19T23:56:09.192Z,0.88
2023-03-19T23:58:42.652Z,6.35
